Relevés horaires Matro (Suisse)


Relevés horaires à Matro - Mercredi 12 Janv. 2022
Heure UTC1 Température [°C] Vent [km/h] Hum. [%] Pres.4 [hPa] Visi. [Km] Nébu. [octa] Préc.5 [mm] Cond.
2m. Res. Ros. Dir.2 Vit. Moy. Raf.3
23:00 -0.6 -7 -13.4 NO 27.8 -- 37.0 37 850(0.6/3h) -- -- -- --
22:00 -0.6 -7.2 -15.8 NNO 29.6 -- 50.0 30 850(0.9/3h) -- -- -- --
21:00 -0.3 -7.4 -18.2 NNO 35.2 -- 57.4 24 850(1.1/3h) -- -- -- --
20:00 -0.6 -6.8 -25.2 NO 25.9 -- 53.7 13 850(1.0/3h) -- -- -- --
19:00 -0.6 -8.1 -27.2 NO 38.9 -- 57.4 11 850(0.7/3h) -- -- -- --
18:00 -0.4 -7.8 -27.5 NNO 38.9 -- 59.3 11 850(0.4/3h) -- -- -- --
17:00 -1.0 -9.1 -27.9 NNO 44.4 -- 59.3 11 850(0.6/3h) -- -- -- --
16:00 -0.9 -8.2 -27.1 NNO 35.2 -- 50.0 12 850(0.7/3h) -- -- -- --
15:00 -0.7 -7.5 -25.5 NNO 31.5 -- 55.6 13 850(0.5/3h) -- -- -- --
14:00 -0.3 -5.9 -25.9 NO 22.2 -- 37.0 12 850(0.1/3h) -- -- -- --
13:00 -0.2 -6.1 -27.0 NO 24.1 -- 55.6 11 850(0.0/3h) -- -- -- --
12:00 -0.5 -8.1 -28.0 NNO 40.7 -- 61.1 10 850(0.5/3h) -- -- -- --
11:00 -1.2 -8.2 -25.3 NNO 31.5 -- 51.9 14 850(1.3/3h) -- -- -- --
10:00 -1.7 -9.4 -25.2 NNO 37.0 -- 61.1 15 850(2.0/3h) -- -- -- --
09:00 -1.8 -7.8 -26.0 NO 22.2 -- 50.0 14 850(2.1/3h) -- -- -- --
08:00 -2.4 -9.8 -26.1 NO 31.5 -- 50.0 14 850(1.9/3h) -- -- -- --
07:00 -2.7 -9.5 -28.6 NO 25.9 -- 46.3 11 850(1.3/3h) -- -- -- --
06:00 -2.2 -8.9 -30.5 NO 25.9 -- 79.6 9 850(0.8/3h) -- -- -- --
05:00 -2.1 -9.8 -28.7 NNO 35.2 -- 53.7 11 850(0.1/3h) -- -- -- --
04:00 -2.0 -10.1 -28.5 NNO 40.7 -- 68.5 11 850(0.4/3h) -- -- -- --
03:00 -2.3 -10.5 -28.5 NNO 40.7 -- 79.6 11 850(0.7/3h) -- -- -- --
02:00 -2.4 -10.8 -27.5 NNO 42.6 -- 68.5 12 850(0.7/3h) -- -- -- --
01:00 -2.4 -11.6 -28.0 NNO 51.9 -- 79.6 12 850(0.6/3h) -- -- -- --
00:00 -2.4 -11.6 -29.1 NNO 51.9 -- 72.2 11 850(0.3/3h) -- -- -- --

1 Coordinated Universal Time. Actuellement il est 20:00 locale et 18:00 UTC.

2 Le vent souffle depuis la direction indiquée vers la direction oposée.

3 Les rafales max. sont disponible 40 min après l'heure du relevé.

4 Pour les stations d'altitude (plus de 600m) le géopotentiel du niveau le plus proche de la pression obligatoire est indiqué.

5 Les stations disposant d'un diffuseur peuvent indiquer "trace". Cela signifie que des précipitations ont touchés le sol mais que la quantité est inférieure à 0.1 mm.

Copyright

Les données affichées sur cette page sont la propriété exclusive de Météo Suisse.

Récapitulatif de la journée
Température [°C] Vent [km/h] Ensoleillement4 [h] Precipitations totale5 [mm] Pression [Hpa]
Min1 Max.2 Moy.3 Max. Min Max.
-3.1 0.1 0 79.6 8 h 0 min 0 850.0 850.0

1 Température minimale relevée entre 18:00 UTC la veille et 18:00 UTC le jour donné.

2 Température maximale relevée entre 06:00 UTC le jour donné et 06:00 UTC le lendemain.

3 Vent moyen de la journée basé sur les relevés horaires.

4 Ensoleillement en heures relevé entre 06:00 UTC la veille et 06:00 UTC le jour donné.

5 Précipitations totales tombées entre 06:00 UTC la jour donné et 06:00 UTC le lendemain.

Graphiques horaires